sensor_id;sensor_type;location;lat;lon;timestamp;pressure;altitude;pressure_sealevel;temperature;humidity
26915;BME280;14480;52.608;13.416;2022-12-20T08:29:56;141357.31;;;-10.80;100.00
26915;BME280;14480;52.608;13.416;2022-12-20T08:35:00;141368.44;;;-10.75;100.00
26915;BME280;14480;52.608;13.416;2022-12-20T08:40:05;141426.34;;;-10.51;100.00
26915;BME280;14480;52.608;13.416;2022-12-20T08:45:11;141431.28;;;-10.49;100.00
26915;BME280;14480;52.608;13.416;2022-12-20T08:50:14;141464.53;;;-10.36;100.00
26915;BME280;14480;52.608;13.416;2022-12-20T08:55:30;141464.53;;;-10.36;100.00
26915;BME280;14480;52.608;13.416;2022-12-20T09:06:21;141483.06;;;-10.28;100.00
26915;BME280;14480;52.608;13.416;2022-12-20T09:11:26;141486.75;;;-10.26;100.00
26915;BME280;14480;52.608;13.416;2022-12-20T09:16:30;141494.13;;;-10.23;100.00
26915;BME280;14480;52.608;13.416;2022-12-20T09:21:35;141483.06;;;-10.28;100.00
26915;BME280;14480;52.608;13.416;2022-12-20T09:26:41;141532.28;;;-10.08;100.00
26915;BME280;14480;52.608;13.416;2022-12-20T09:31:49;141415.22;;;-10.56;100.00
26915;BME280;14480;52.608;13.416;2022-12-20T09:36:54;141622.34;;;-9.71;100.00
26915;BME280;14480;52.608;13.416;2022-12-20T09:41:57;141671.66;;;-9.50;100.00
26915;BME280;14480;52.608;13.416;2022-12-20T09:47:03;141660.56;;;-9.55;100.00
26915;BME280;14480;52.608;13.416;2022-12-20T09:52:23;141643.28;;;-9.62;100.00
26915;BME280;14480;52.608;13.416;2022-12-20T09:57:30;141659.34;;;-9.55;100.00
26915;BME280;14480;52.608;13.416;2022-12-20T10:02:36;141650.72;;;-9.59;100.00
26915;BME280;14480;52.608;13.416;2022-12-20T10:08:10;141665.50;;;-9.53;100.00
26915;BME280;14480;52.608;13.416;2022-12-20T10:18:42;141754.31;;;-9.16;100.00
26915;BME280;14480;52.608;13.416;2022-12-20T10:23:55;141769.16;;;-9.10;100.00
26915;BME280;14480;52.608;13.416;2022-12-20T10:29:00;141764.22;;;-9.12;100.00
26915;BME280;14480;52.608;13.416;2022-12-20T10:34:04;141816.06;;;-8.91;100.00
26915;BME280;14480;52.608;13.416;2022-12-20T10:39:09;141818.53;;;-8.90;100.00
26915;BME280;14480;52.608;13.416;2022-12-20T10:44:15;141821.00;;;-8.89;100.00
26915;BME280;14480;52.608;13.416;2022-12-20T10:49:23;141828.41;;;-8.86;100.00
26915;BME280;14480;52.608;13.416;2022-12-20T10:54:32;141861.72;;;-8.72;100.00
26915;BME280;14480;52.608;13.416;2022-12-20T10:59:36;141864.19;;;-8.71;100.00
26915;BME280;14480;52.608;13.416;2022-12-20T11:04:42;141887.66;;;-8.61;100.00
26915;BME280;14480;52.608;13.416;2022-12-20T11:10:01;141887.66;;;-8.61;100.00
26915;BME280;14480;52.608;13.416;2022-12-20T11:15:08;141919.75;;;-8.48;100.00
26915;BME280;14480;52.608;13.416;2022-12-20T11:30:58;141901.25;;;-8.56;100.00
26915;BME280;14480;52.608;13.416;2022-12-20T11:36:06;141902.50;;;-8.55;100.00
26915;BME280;14480;52.608;13.416;2022-12-20T11:41:17;141909.88;;;-8.52;100.00
26915;BME280;14480;52.608;13.416;2022-12-20T11:46:29;141924.69;;;-8.46;100.00
26915;BME280;14480;52.608;13.416;2022-12-20T11:51:38;141975.28;;;-8.25;100.00
26915;BME280;14480;52.608;13.416;2022-12-20T11:56:43;142006.16;;;-8.12;100.00
26915;BME280;14480;52.608;13.416;2022-12-20T12:01:54;141991.34;;;-8.18;100.00
26915;BME280;14480;52.608;13.416;2022-12-20T12:07:07;141988.88;;;-8.19;100.00
26915;BME280;14480;52.608;13.416;2022-12-20T12:12:22;141997.50;;;-8.16;100.00
26915;BME280;14480;52.608;13.416;2022-12-20T12:17:31;142008.59;;;-8.11;100.00
26915;BME280;14480;52.608;13.416;2022-12-20T12:22:39;142014.81;;;-8.09;100.00
26915;BME280;14480;52.608;13.416;2022-12-20T12:27:47;142042.00;;;-7.98;100.00
26915;BME280;14480;52.608;13.416;2022-12-20T12:32:52;142030.84;;;-8.02;100.00
26915;BME280;14480;52.608;13.416;2022-12-20T12:38:03;142018.53;;;-8.07;100.00
26915;BME280;14480;52.608;13.416;2022-12-20T12:43:27;142032.09;;;-8.02;100.00
26915;BME280;14480;52.608;13.416;2022-12-20T12:48:45;142007.38;;;-8.12;100.00
26915;BME280;14480;52.608;13.416;2022-12-20T12:53:52;142021.00;;;-8.06;100.00
26915;BME280;14480;52.608;13.416;2022-12-20T13:04:51;141986.41;;;-8.20;100.00
26915;BME280;14480;52.608;13.416;2022-12-20T13:09:55;142012.34;;;-8.10;100.00
26915;BME280;14480;52.608;13.416;2022-12-20T13:15:00;141999.97;;;-8.15;100.00
26915;BME280;14480;52.608;13.416;2022-12-20T13:20:14;141972.81;;;-8.26;100.00
26915;BME280;14480;52.608;13.416;2022-12-20T13:25:27;141929.66;;;-8.44;100.00
26915;BME280;14480;52.608;13.416;2022-12-20T13:30:32;141896.28;;;-8.58;100.00
26915;BME280;14480;52.608;13.416;2022-12-20T13:35:45;141885.19;;;-8.62;100.00
26915;BME280;14480;52.608;13.416;2022-12-20T13:40:53;141876.56;;;-8.66;100.00
26915;BME280;14480;52.608;13.416;2022-12-20T13:46:14;141859.25;;;-8.73;100.00
26915;BME280;14480;52.608;13.416;2022-12-20T13:51:23;141865.41;;;-8.70;100.00
26915;BME280;14480;52.608;13.416;2022-12-20T13:56:32;141853.09;;;-8.75;100.00
26915;BME280;14480;52.608;13.416;2022-12-20T14:01:37;141829.63;;;-8.85;100.00
26915;BME280;14480;52.608;13.416;2022-12-20T14:06:50;141819.78;;;-8.89;100.00
26915;BME280;14480;52.608;13.416;2022-12-20T14:12:01;141792.63;;;-9.00;100.00
26915;BME280;14480;52.608;13.416;2022-12-20T14:17:14;141792.63;;;-9.00;100.00
26915;BME280;14480;52.608;13.416;2022-12-20T14:22:19;141771.63;;;-9.09;100.00
26915;BME280;14480;52.608;13.416;2022-12-20T14:27:24;141771.63;;;-9.09;100.00
26915;BME280;14480;52.608;13.416;2022-12-20T14:32:29;141761.75;;;-9.13;100.00
26915;BME280;14480;52.608;13.416;2022-12-20T14:37:36;141770.38;;;-9.09;100.00
26915;BME280;14480;52.608;13.416;2022-12-20T14:42:45;141751.84;;;-9.17;100.00
26915;BME280;14480;52.608;13.416;2022-12-20T14:47:50;141739.53;;;-9.22;100.00
26915;BME280;14480;52.608;13.416;2022-12-20T14:52:57;141722.25;;;-9.29;100.00
26915;BME280;14480;52.608;13.416;2022-12-20T14:58:04;141742.00;;;-9.21;100.00
26915;BME280;14480;52.608;13.416;2022-12-20T15:03:10;141735.84;;;-9.24;100.00
26915;BME280;14480;52.608;13.416;2022-12-20T15:08:15;141709.94;;;-9.34;100.00
26915;BME280;14480;52.608;13.416;2022-12-20T15:13:23;141688.94;;;-9.43;100.00
26915;BME280;14480;52.608;13.416;2022-12-20T15:18:27;141687.72;;;-9.44;100.00
26915;BME280;14480;52.608;13.416;2022-12-20T15:23:33;141679.09;;;-9.47;100.00
26915;BME280;14480;52.608;13.416;2022-12-20T15:28:38;141674.13;;;-9.49;100.00
26915;BME280;14480;52.608;13.416;2022-12-20T15:33:42;141680.31;;;-9.47;100.00
26915;BME280;14480;52.608;13.416;2022-12-20T15:38:45;141674.13;;;-9.49;100.00
26915;BME280;14480;52.608;13.416;2022-12-20T15:44:15;141654.41;;;-9.57;100.00
26915;BME280;14480;52.608;13.416;2022-12-20T15:49:40;141648.25;;;-9.60;100.00
26915;BME280;14480;52.608;13.416;2022-12-20T15:54:51;141651.94;;;-9.58;100.00
26915;BME280;14480;52.608;13.416;2022-12-20T16:00:08;141642.03;;;-9.62;100.00
26915;BME280;14480;52.608;13.416;2022-12-20T16:05:13;141644.50;;;-9.61;100.00
26915;BME280;14480;52.608;13.416;2022-12-20T16:10:17;141597.69;;;-9.81;100.00
26915;BME280;14480;52.608;13.416;2022-12-20T16:15:22;141621.13;;;-9.71;100.00
26915;BME280;14480;52.608;13.416;2022-12-20T16:20:26;141611.22;;;-9.75;100.00
26915;BME280;14480;52.608;13.416;2022-12-20T16:25:31;141585.31;;;-9.86;100.00
26915;BME280;14480;52.608;13.416;2022-12-20T16:30:36;141608.75;;;-9.76;100.00
26915;BME280;14480;52.608;13.416;2022-12-20T16:35:40;141677.84;;;-9.48;100.00
26915;BME280;14480;52.608;13.416;2022-12-20T16:40:45;141771.63;;;-9.09;100.00
26915;BME280;14480;52.608;13.416;2022-12-20T16:46:00;141822.22;;;-8.88;100.00
26915;BME280;14480;52.608;13.416;2022-12-20T16:51:07;141796.31;;;-8.99;100.00
26915;BME280;14480;52.608;13.416;2022-12-20T16:56:14;141856.78;;;-8.74;100.00
26915;BME280;14480;52.608;13.416;2022-12-20T17:01:23;141767.94;;;-9.10;100.00
26915;BME280;14480;52.608;13.416;2022-12-20T17:06:27;141698.78;;;-9.39;100.00
26915;BME280;14480;52.608;13.416;2022-12-20T17:17:26;141629.72;;;-9.67;100.00
26915;BME280;14480;52.608;13.416;2022-12-20T17:23:14;141554.50;;;-9.98;100.00
26915;BME280;14480;52.608;13.416;2022-12-20T17:29:34;141607.53;;;-9.77;100.00
26915;BME280;14480;52.608;13.416;2022-12-20T17:34:52;141622.34;;;-9.71;100.00
26915;BME280;14480;52.608;13.416;2022-12-20T17:39:56;141626.03;;;-9.69;100.00
26915;BME280;14480;52.608;13.416;2022-12-20T17:45:00;141601.38;;;-9.79;100.00
26915;BME280;14480;52.608;13.416;2022-12-20T17:50:07;141618.66;;;-9.72;100.00
26915;BME280;14480;52.608;13.416;2022-12-20T17:55:13;141616.13;;;-9.73;100.00
26915;BME280;14480;52.608;13.416;2022-12-20T18:00:20;141621.13;;;-9.71;100.00
26915;BME280;14480;52.608;13.416;2022-12-20T18:05:33;141630.97;;;-9.67;100.00
26915;BME280;14480;52.608;13.416;2022-12-20T18:10:37;141658.09;;;-9.56;100.00
26915;BME280;14480;52.608;13.416;2022-12-20T18:15:41;142140.84;;;-7.57;100.00
26915;BME280;14480;52.608;13.416;2022-12-20T18:20:47;142488.31;;;-6.14;100.00
26915;BME280;14480;52.608;13.416;2022-12-20T18:25:50;142213.78;;;-7.27;100.00
26915;BME280;14480;52.608;13.416;2022-12-20T18:30:54;142274.34;;;-7.02;100.00
26915;BME280;14480;52.608;13.416;2022-12-20T18:36:03;142039.53;;;-7.99;100.00
26915;BME280;14480;52.608;13.416;2022-12-20T18:41:08;141865.41;;;-8.70;100.00
26915;BME280;14480;52.608;13.416;2022-12-20T18:46:14;141775.31;;;-9.07;100.00
26915;BME280;14480;52.608;13.416;2022-12-20T18:51:20;141717.31;;;-9.31;100.00
26915;BME280;14480;52.608;13.416;2022-12-20T18:56:25;141670.41;;;-9.51;100.00
26915;BME280;14480;52.608;13.416;2022-12-20T19:01:31;141663.03;;;-9.54;100.00
26915;BME280;14480;52.608;13.416;2022-12-20T19:06:37;141640.81;;;-9.63;100.00
26915;BME280;14480;52.608;13.416;2022-12-20T19:11:43;141643.28;;;-9.62;100.00
26915;BME280;14480;52.608;13.416;2022-12-20T19:16:50;141634.66;;;-9.65;100.00
26915;BME280;14480;52.608;13.416;2022-12-20T19:21:57;141644.50;;;-9.61;100.00
26915;BME280;14480;52.608;13.416;2022-12-20T19:27:01;141653.19;;;-9.58;100.00
26915;BME280;14480;52.608;13.416;2022-12-20T19:32:09;141640.81;;;-9.63;100.00
26915;BME280;14480;52.608;13.416;2022-12-20T19:37:14;141624.81;;;-9.69;100.00
26915;BME280;14480;52.608;13.416;2022-12-20T19:42:19;141621.13;;;-9.71;100.00
26915;BME280;14480;52.608;13.416;2022-12-20T19:47:26;141573.00;;;-9.91;100.00
26915;BME280;14480;52.608;13.416;2022-12-20T19:52:32;141571.78;;;-9.91;100.00
26915;BME280;14480;52.608;13.416;2022-12-20T19:57:37;141537.25;;;-10.06;100.00
26915;BME280;14480;52.608;13.416;2022-12-20T20:02:41;141526.13;;;-10.10;100.00
26915;BME280;14480;52.608;13.416;2022-12-20T20:07:46;141528.59;;;-10.09;100.00
26915;BME280;14480;52.608;13.416;2022-12-20T20:12:51;141513.81;;;-10.15;100.00
26915;BME280;14480;52.608;13.416;2022-12-20T20:17:55;141330.22;;;-10.91;100.00
26915;BME280;14480;52.608;13.416;2022-12-20T20:23:01;141492.91;;;-10.24;100.00
26915;BME280;14480;52.608;13.416;2022-12-20T20:28:05;141495.34;;;-10.23;100.00
26915;BME280;14480;52.608;13.416;2022-12-20T20:33:08;141501.47;;;-10.20;100.00
26915;BME280;14480;52.608;13.416;2022-12-20T20:38:14;141485.53;;;-10.27;100.00
26915;BME280;14480;52.608;13.416;2022-12-20T20:43:18;141500.22;;;-10.21;100.00
26915;BME280;14480;52.608;13.416;2022-12-20T20:48:22;141474.41;;;-10.32;100.00
26915;BME280;14480;52.608;13.416;2022-12-20T20:53:28;141471.94;;;-10.33;100.00
26915;BME280;14480;52.608;13.416;2022-12-20T20:58:36;141470.69;;;-10.33;100.00
26915;BME280;14480;52.608;13.416;2022-12-20T21:03:40;141492.91;;;-10.24;100.00
26915;BME280;14480;52.608;13.416;2022-12-20T21:08:45;141489.22;;;-10.25;100.00
26915;BME280;14480;52.608;13.416;2022-12-20T21:13:49;141483.06;;;-10.28;100.00
26915;BME280;14480;52.608;13.416;2022-12-20T21:18:52;141510.13;;;-10.17;100.00
26915;BME280;14480;52.608;13.416;2022-12-20T21:23:58;141516.28;;;-10.14;100.00
26915;BME280;14480;52.608;13.416;2022-12-20T21:29:01;141518.75;;;-10.13;100.00
26915;BME280;14480;52.608;13.416;2022-12-20T21:34:05;141524.91;;;-10.11;100.00
26915;BME280;14480;52.608;13.416;2022-12-20T21:39:10;141529.81;;;-10.09;100.00
26915;BME280;14480;52.608;13.416;2022-12-20T21:44:16;141510.13;;;-10.17;100.00
26915;BME280;14480;52.608;13.416;2022-12-20T21:49:24;141538.50;;;-10.05;100.00
26915;BME280;14480;52.608;13.416;2022-12-20T21:54:29;141529.81;;;-10.09;100.00
26915;BME280;14480;52.608;13.416;2022-12-20T21:59:33;141519.97;;;-10.13;100.00
26915;BME280;14480;52.608;13.416;2022-12-20T22:04:37;141517.53;;;-10.14;100.00
26915;BME280;14480;52.608;13.416;2022-12-20T22:09:44;141502.69;;;-10.20;100.00
26915;BME280;14480;52.608;13.416;2022-12-20T22:14:53;141505.16;;;-10.19;100.00
26915;BME280;14480;52.608;13.416;2022-12-20T22:19:56;141516.28;;;-10.14;100.00
26915;BME280;14480;52.608;13.416;2022-12-20T22:25:01;141497.81;;;-10.22;100.00
26915;BME280;14480;52.608;13.416;2022-12-20T22:30:05;141512.59;;;-10.16;100.00
26915;BME280;14480;52.608;13.416;2022-12-20T22:35:09;141510.13;;;-10.17;100.00
26915;BME280;14480;52.608;13.416;2022-12-20T22:40:16;141497.81;;;-10.22;100.00
